sensor_id;sensor_type;location;lat;lon;timestamp;temperature;humidity
52621;DHT22;38515;53.160;6.990;2022-07-29T00:01:50;15.00;99.90
52621;DHT22;38515;53.160;6.990;2022-07-29T00:04:20;15.00;99.90
52621;DHT22;38515;53.160;6.990;2022-07-29T00:06:46;15.00;99.90
52621;DHT22;38515;53.160;6.990;2022-07-29T00:09:12;15.00;99.90
52621;DHT22;38515;53.160;6.990;2022-07-29T00:11:38;15.00;99.90
52621;DHT22;38515;53.160;6.990;2022-07-29T00:14:04;15.00;99.90
52621;DHT22;38515;53.160;6.990;2022-07-29T00:16:30;15.00;99.90
52621;DHT22;38515;53.160;6.990;2022-07-29T00:18:56;15.00;99.90
52621;DHT22;38515;53.160;6.990;2022-07-29T00:21:22;15.00;99.90
52621;DHT22;38515;53.160;6.990;2022-07-29T00:23:48;15.00;99.90
52621;DHT22;38515;53.160;6.990;2022-07-29T00:26:14;15.00;99.90
52621;DHT22;38515;53.160;6.990;2022-07-29T00:28:39;15.00;99.90
52621;DHT22;38515;53.160;6.990;2022-07-29T00:31:05;14.90;99.90
52621;DHT22;38515;53.160;6.990;2022-07-29T00:33:31;15.00;99.90
52621;DHT22;38515;53.160;6.990;2022-07-29T00:35:57;14.90;99.90
52621;DHT22;38515;53.160;6.990;2022-07-29T00:38:23;14.90;99.90
52621;DHT22;38515;53.160;6.990;2022-07-29T00:40:48;14.90;99.90
52621;DHT22;38515;53.160;6.990;2022-07-29T00:43:14;14.90;99.90
52621;DHT22;38515;53.160;6.990;2022-07-29T00:45:41;14.90;99.90
52621;DHT22;38515;53.160;6.990;2022-07-29T00:48:07;14.90;99.90
52621;DHT22;38515;53.160;6.990;2022-07-29T00:50:35;14.90;99.90
52621;DHT22;38515;53.160;6.990;2022-07-29T00:53:02;14.90;99.90
52621;DHT22;38515;53.160;6.990;2022-07-29T00:55:29;14.90;99.90
52621;DHT22;38515;53.160;6.990;2022-07-29T00:57:55;14.90;99.90
52621;DHT22;38515;53.160;6.990;2022-07-29T01:00:23;14.90;99.90
52621;DHT22;38515;53.160;6.990;2022-07-29T01:02:50;14.90;99.90
52621;DHT22;38515;53.160;6.990;2022-07-29T01:05:18;14.90;99.90
52621;DHT22;38515;53.160;6.990;2022-07-29T01:07:46;14.90;99.90
52621;DHT22;38515;53.160;6.990;2022-07-29T01:10:13;14.90;99.90
52621;DHT22;38515;53.160;6.990;2022-07-29T01:12:40;14.90;99.90
52621;DHT22;38515;53.160;6.990;2022-07-29T01:15:08;14.90;99.90
52621;DHT22;38515;53.160;6.990;2022-07-29T01:17:50;14.90;99.90
52621;DHT22;38515;53.160;6.990;2022-07-29T01:20:41;14.90;99.90
52621;DHT22;38515;53.160;6.990;2022-07-29T01:31:25;14.90;99.90
52621;DHT22;38515;53.160;6.990;2022-07-29T01:33:58;14.90;99.90
52621;DHT22;38515;53.160;6.990;2022-07-29T01:36:38;14.90;99.90
52621;DHT22;38515;53.160;6.990;2022-07-29T01:39:14;14.90;99.90
52621;DHT22;38515;53.160;6.990;2022-07-29T01:41:55;14.90;99.90
52621;DHT22;38515;53.160;6.990;2022-07-29T01:44:32;14.90;99.90
52621;DHT22;38515;53.160;6.990;2022-07-29T01:47:02;14.90;99.90
52621;DHT22;38515;53.160;6.990;2022-07-29T01:49:36;14.90;99.90
52621;DHT22;38515;53.160;6.990;2022-07-29T01:52:13;14.90;99.90
52621;DHT22;38515;53.160;6.990;2022-07-29T01:54:45;15.00;99.90
52621;DHT22;38515;53.160;6.990;2022-07-29T01:57:14;14.90;99.90
52621;DHT22;38515;53.160;6.990;2022-07-29T01:59:41;15.00;99.90
52621;DHT22;38515;53.160;6.990;2022-07-29T02:02:10;15.00;99.90
52621;DHT22;38515;53.160;6.990;2022-07-29T02:04:37;15.00;99.90
52621;DHT22;38515;53.160;6.990;2022-07-29T02:07:06;15.00;99.90
52621;DHT22;38515;53.160;6.990;2022-07-29T02:09:35;15.00;99.90
52621;DHT22;38515;53.160;6.990;2022-07-29T02:12:03;15.00;99.90
52621;DHT22;38515;53.160;6.990;2022-07-29T02:14:33;15.00;99.90
52621;DHT22;38515;53.160;6.990;2022-07-29T02:17:01;15.00;99.90
52621;DHT22;38515;53.160;6.990;2022-07-29T02:19:27;15.00;99.90
52621;DHT22;38515;53.160;6.990;2022-07-29T02:21:56;15.00;99.90
52621;DHT22;38515;53.160;6.990;2022-07-29T02:24:24;15.00;99.90
52621;DHT22;38515;53.160;6.990;2022-07-29T02:26:53;15.00;99.90
52621;DHT22;38515;53.160;6.990;2022-07-29T02:29:23;15.00;99.90
52621;DHT22;38515;53.160;6.990;2022-07-29T02:31:51;15.00;99.90
52621;DHT22;38515;53.160;6.990;2022-07-29T02:34:19;15.00;99.90
52621;DHT22;38515;53.160;6.990;2022-07-29T02:36:47;15.00;99.90
52621;DHT22;38515;53.160;6.990;2022-07-29T02:39:14;15.00;99.90
52621;DHT22;38515;53.160;6.990;2022-07-29T02:41:43;14.90;99.90
52621;DHT22;38515;53.160;6.990;2022-07-29T02:44:12;15.00;99.90
52621;DHT22;38515;53.160;6.990;2022-07-29T02:46:48;14.90;99.90
52621;DHT22;38515;53.160;6.990;2022-07-29T02:49:35;14.90;99.90
52621;DHT22;38515;53.160;6.990;2022-07-29T02:52:12;14.90;99.90
52621;DHT22;38515;53.160;6.990;2022-07-29T02:54:46;14.90;99.90
52621;DHT22;38515;53.160;6.990;2022-07-29T02:57:22;14.90;99.90
52621;DHT22;38515;53.160;6.990;2022-07-29T02:59:52;14.90;99.90
52621;DHT22;38515;53.160;6.990;2022-07-29T03:02:21;14.90;99.90
52621;DHT22;38515;53.160;6.990;2022-07-29T03:04:50;14.90;99.90
52621;DHT22;38515;53.160;6.990;2022-07-29T03:07:18;14.80;99.90
52621;DHT22;38515;53.160;6.990;2022-07-29T03:09:46;14.80;99.90
52621;DHT22;38515;53.160;6.990;2022-07-29T03:12:14;15.20;99.90
52621;DHT22;38515;53.160;6.990;2022-07-29T03:14:40;14.80;99.90
52621;DHT22;38515;53.160;6.990;2022-07-29T03:17:07;14.80;99.90
52621;DHT22;38515;53.160;6.990;2022-07-29T03:19:34;14.80;99.90
52621;DHT22;38515;53.160;6.990;2022-07-29T03:22:01;14.80;99.90
52621;DHT22;38515;53.160;6.990;2022-07-29T03:24:28;14.80;99.90
52621;DHT22;38515;53.160;6.990;2022-07-29T03:26:56;14.80;99.90
52621;DHT22;38515;53.160;6.990;2022-07-29T03:29:22;14.70;99.90
52621;DHT22;38515;53.160;6.990;2022-07-29T03:31:48;14.70;99.90
52621;DHT22;38515;53.160;6.990;2022-07-29T03:34:13;14.70;99.90
52621;DHT22;38515;53.160;6.990;2022-07-29T03:36:39;14.70;99.90
52621;DHT22;38515;53.160;6.990;2022-07-29T03:39:05;14.70;99.90
52621;DHT22;38515;53.160;6.990;2022-07-29T03:41:32;14.70;99.90
52621;DHT22;38515;53.160;6.990;2022-07-29T03:44:00;14.70;99.90
52621;DHT22;38515;53.160;6.990;2022-07-29T03:46:26;14.70;99.90
52621;DHT22;38515;53.160;6.990;2022-07-29T03:48:58;14.70;99.90
52621;DHT22;38515;53.160;6.990;2022-07-29T03:51:25;14.70;99.90
52621;DHT22;38515;53.160;6.990;2022-07-29T03:53:52;14.70;99.90
52621;DHT22;38515;53.160;6.990;2022-07-29T03:56:21;14.70;99.90
52621;DHT22;38515;53.160;6.990;2022-07-29T03:58:48;14.70;99.90
52621;DHT22;38515;53.160;6.990;2022-07-29T04:01:16;14.70;99.90
52621;DHT22;38515;53.160;6.990;2022-07-29T04:03:44;14.70;99.90
52621;DHT22;38515;53.160;6.990;2022-07-29T04:06:11;14.70;99.90
52621;DHT22;38515;53.160;6.990;2022-07-29T04:08:37;14.70;99.90
52621;DHT22;38515;53.160;6.990;2022-07-29T04:11:04;14.60;99.90
52621;DHT22;38515;53.160;6.990;2022-07-29T04:13:32;14.60;99.90
52621;DHT22;38515;53.160;6.990;2022-07-29T04:15:58;14.70;99.90
52621;DHT22;38515;53.160;6.990;2022-07-29T04:18:24;14.70;99.90
52621;DHT22;38515;53.160;6.990;2022-07-29T04:20:50;14.70;99.90
52621;DHT22;38515;53.160;6.990;2022-07-29T04:23:16;14.70;99.90
52621;DHT22;38515;53.160;6.990;2022-07-29T04:25:42;14.70;99.90
52621;DHT22;38515;53.160;6.990;2022-07-29T04:28:09;14.70;99.90
52621;DHT22;38515;53.160;6.990;2022-07-29T04:30:36;14.70;99.90
52621;DHT22;38515;53.160;6.990;2022-07-29T04:33:04;14.70;99.90
52621;DHT22;38515;53.160;6.990;2022-07-29T04:35:33;14.70;99.90
52621;DHT22;38515;53.160;6.990;2022-07-29T04:37:59;14.70;99.90
52621;DHT22;38515;53.160;6.990;2022-07-29T04:40:25;14.80;99.90
52621;DHT22;38515;53.160;6.990;2022-07-29T04:42:50;14.80;99.90
52621;DHT22;38515;53.160;6.990;2022-07-29T04:45:17;14.70;99.90
52621;DHT22;38515;53.160;6.990;2022-07-29T04:47:42;14.80;99.90
52621;DHT22;38515;53.160;6.990;2022-07-29T04:50:09;14.80;99.90
52621;DHT22;38515;53.160;6.990;2022-07-29T04:52:35;14.80;99.90
52621;DHT22;38515;53.160;6.990;2022-07-29T04:55:03;14.80;99.90
52621;DHT22;38515;53.160;6.990;2022-07-29T04:57:29;14.80;99.90
52621;DHT22;38515;53.160;6.990;2022-07-29T04:59:54;14.80;99.90
52621;DHT22;38515;53.160;6.990;2022-07-29T05:02:20;14.80;99.90
52621;DHT22;38515;53.160;6.990;2022-07-29T05:04:47;14.80;99.90
52621;DHT22;38515;53.160;6.990;2022-07-29T05:07:13;14.80;99.90
52621;DHT22;38515;53.160;6.990;2022-07-29T05:09:40;14.80;99.90
52621;DHT22;38515;53.160;6.990;2022-07-29T05:12:06;14.80;99.90
52621;DHT22;38515;53.160;6.990;2022-07-29T05:14:32;14.80;99.90
52621;DHT22;38515;53.160;6.990;2022-07-29T05:16:58;14.80;99.90
52621;DHT22;38515;53.160;6.990;2022-07-29T05:19:24;14.80;99.90
52621;DHT22;38515;53.160;6.990;2022-07-29T05:21:50;14.90;99.90
52621;DHT22;38515;53.160;6.990;2022-07-29T05:24:16;14.90;99.90
52621;DHT22;38515;53.160;6.990;2022-07-29T05:26:42;14.90;99.90
52621;DHT22;38515;53.160;6.990;2022-07-29T05:29:08;14.90;99.90
52621;DHT22;38515;53.160;6.990;2022-07-29T05:31:34;14.90;99.90
52621;DHT22;38515;53.160;6.990;2022-07-29T05:34:00;15.00;99.90
52621;DHT22;38515;53.160;6.990;2022-07-29T05:36:26;15.00;99.90
52621;DHT22;38515;53.160;6.990;2022-07-29T05:38:52;15.00;99.90
52621;DHT22;38515;53.160;6.990;2022-07-29T05:41:19;15.10;99.90
52621;DHT22;38515;53.160;6.990;2022-07-29T05:43:46;15.20;99.90
52621;DHT22;38515;53.160;6.990;2022-07-29T05:46:12;15.20;99.90
52621;DHT22;38515;53.160;6.990;2022-07-29T05:48:39;15.30;99.90
52621;DHT22;38515;53.160;6.990;2022-07-29T05:51:05;15.30;99.90
52621;DHT22;38515;53.160;6.990;2022-07-29T05:53:31;15.30;99.90
52621;DHT22;38515;53.160;6.990;2022-07-29T05:55:57;15.30;99.90
52621;DHT22;38515;53.160;6.990;2022-07-29T05:58:23;15.40;99.90
52621;DHT22;38515;53.160;6.990;2022-07-29T06:00:49;15.40;99.90
52621;DHT22;38515;53.160;6.990;2022-07-29T06:03:14;15.40;99.90
52621;DHT22;38515;53.160;6.990;2022-07-29T06:05:41;15.40;99.90
52621;DHT22;38515;53.160;6.990;2022-07-29T06:08:07;15.40;99.90
52621;DHT22;38515;53.160;6.990;2022-07-29T06:10:34;15.40;99.90
52621;DHT22;38515;53.160;6.990;2022-07-29T06:13:00;15.50;99.90
52621;DHT22;38515;53.160;6.990;2022-07-29T06:15:26;15.50;99.90
52621;DHT22;38515;53.160;6.990;2022-07-29T06:17:52;15.60;99.90
52621;DHT22;38515;53.160;6.990;2022-07-29T06:20:18;15.60;99.90
52621;DHT22;38515;53.160;6.990;2022-07-29T06:22:44;15.60;99.90
52621;DHT22;38515;53.160;6.990;2022-07-29T06:25:10;15.60;99.90
52621;DHT22;38515;53.160;6.990;2022-07-29T06:27:37;15.70;99.90
52621;DHT22;38515;53.160;6.990;2022-07-29T06:30:03;15.70;99.90
52621;DHT22;38515;53.160;6.990;2022-07-29T06:32:32;15.70;99.90
52621;DHT22;38515;53.160;6.990;2022-07-29T06:34:58;15.70;99.90
52621;DHT22;38515;53.160;6.990;2022-07-29T06:37:24;15.70;99.90
52621;DHT22;38515;53.160;6.990;2022-07-29T06:39:51;15.40;99.90
52621;DHT22;38515;53.160;6.990;2022-07-29T06:42:43;15.80;99.90
52621;DHT22;38515;53.160;6.990;2022-07-29T06:45:10;15.80;99.90
52621;DHT22;38515;53.160;6.990;2022-07-29T06:47:37;15.90;99.90
52621;DHT22;38515;53.160;6.990;2022-07-29T06:50:03;15.90;99.90
52621;DHT22;38515;53.160;6.990;2022-07-29T06:52:30;15.90;99.90
52621;DHT22;38515;53.160;6.990;2022-07-29T06:54:56;15.90;99.90
52621;DHT22;38515;53.160;6.990;2022-07-29T06:57:22;15.90;99.90
52621;DHT22;38515;53.160;6.990;2022-07-29T06:59:48;16.00;99.90
52621;DHT22;38515;53.160;6.990;2022-07-29T07:02:14;16.00;99.90
52621;DHT22;38515;53.160;6.990;2022-07-29T07:04:40;16.00;99.90
52621;DHT22;38515;53.160;6.990;2022-07-29T07:07:06;16.00;99.90
52621;DHT22;38515;53.160;6.990;2022-07-29T07:09:31;16.00;99.90
52621;DHT22;38515;53.160;6.990;2022-07-29T07:11:57;16.00;99.90
52621;DHT22;38515;53.160;6.990;2022-07-29T07:14:24;16.10;99.90
52621;DHT22;38515;53.160;6.990;2022-07-29T07:16:52;16.10;99.90
52621;DHT22;38515;53.160;6.990;2022-07-29T07:19:17;16.20;99.90
52621;DHT22;38515;53.160;6.990;2022-07-29T07:21:44;16.20;99.90
52621;DHT22;38515;53.160;6.990;2022-07-29T07:24:10;16.30;99.90
52621;DHT22;38515;53.160;6.990;2022-07-29T07:26:36;16.20;99.90
52621;DHT22;38515;53.160;6.990;2022-07-29T07:29:03;16.30;99.90
52621;DHT22;38515;53.160;6.990;2022-07-29T07:31:29;16.40;99.90
52621;DHT22;38515;53.160;6.990;2022-07-29T07:33:54;16.40;99.90
52621;DHT22;38515;53.160;6.990;2022-07-29T07:36:20;16.50;99.90
52621;DHT22;38515;53.160;6.990;2022-07-29T07:38:47;16.50;99.90
52621;DHT22;38515;53.160;6.990;2022-07-29T07:41:13;16.50;99.90
52621;DHT22;38515;53.160;6.990;2022-07-29T07:43:38;16.60;99.90
52621;DHT22;38515;53.160;6.990;2022-07-29T07:46:04;16.60;99.90
52621;DHT22;38515;53.160;6.990;2022-07-29T07:48:30;16.60;99.90
52621;DHT22;38515;53.160;6.990;2022-07-29T07:50:56;16.60;99.90
52621;DHT22;38515;53.160;6.990;2022-07-29T07:53:22;16.60;99.90
52621;DHT22;38515;53.160;6.990;2022-07-29T07:55:48;16.60;99.90
52621;DHT22;38515;53.160;6.990;2022-07-29T07:58:14;16.70;99.90
52621;DHT22;38515;53.160;6.990;2022-07-29T08:00:40;16.70;99.90
52621;DHT22;38515;53.160;6.990;2022-07-29T08:03:07;16.80;99.90
52621;DHT22;38515;53.160;6.990;2022-07-29T08:05:35;16.90;99.90
52621;DHT22;38515;53.160;6.990;2022-07-29T08:08:02;16.90;99.90
52621;DHT22;38515;53.160;6.990;2022-07-29T08:10:28;16.90;99.90
52621;DHT22;38515;53.160;6.990;2022-07-29T08:13:12;17.00;99.90
52621;DHT22;38515;53.160;6.990;2022-07-29T08:15:38;16.90;99.90
52621;DHT22;38515;53.160;6.990;2022-07-29T08:18:05;16.90;99.90
52621;DHT22;38515;53.160;6.990;2022-07-29T08:20:31;16.90;99.90
52621;DHT22;38515;53.160;6.990;2022-07-29T08:22:59;16.90;99.90
52621;DHT22;38515;53.160;6.990;2022-07-29T08:25:25;16.90;99.90
52621;DHT22;38515;53.160;6.990;2022-07-29T08:27:50;17.00;99.90
52621;DHT22;38515;53.160;6.990;2022-07-29T08:30:19;17.00;99.90
52621;DHT22;38515;53.160;6.990;2022-07-29T08:32:47;17.10;99.90
52621;DHT22;38515;53.160;6.990;2022-07-29T08:35:13;17.10;99.90
52621;DHT22;38515;53.160;6.990;2022-07-29T08:37:39;17.20;99.90
52621;DHT22;38515;53.160;6.990;2022-07-29T08:40:05;17.30;99.90
52621;DHT22;38515;53.160;6.990;2022-07-29T08:42:31;17.40;99.90
52621;DHT22;38515;53.160;6.990;2022-07-29T08:44:58;17.50;99.90
52621;DHT22;38515;53.160;6.990;2022-07-29T08:47:24;17.50;99.90
52621;DHT22;38515;53.160;6.990;2022-07-29T08:49:52;17.60;99.90
52621;DHT22;38515;53.160;6.990;2022-07-29T08:52:18;17.70;99.90
52621;DHT22;38515;53.160;6.990;2022-07-29T08:54:45;17.70;99.90
52621;DHT22;38515;53.160;6.990;2022-07-29T08:57:13;17.70;99.90
52621;DHT22;38515;53.160;6.990;2022-07-29T08:59:41;17.80;99.90
52621;DHT22;38515;53.160;6.990;2022-07-29T09:02:19;17.80;99.90
52621;DHT22;38515;53.160;6.990;2022-07-29T09:04:46;17.90;99.90
52621;DHT22;38515;53.160;6.990;2022-07-29T09:07:17;17.90;99.90
52621;DHT22;38515;53.160;6.990;2022-07-29T09:09:43;18.00;99.90
52621;DHT22;38515;53.160;6.990;2022-07-29T09:12:10;18.00;99.90
52621;DHT22;38515;53.160;6.990;2022-07-29T09:14:39;18.20;99.90
52621;DHT22;38515;53.160;6.990;2022-07-29T09:17:06;18.30;99.90
52621;DHT22;38515;53.160;6.990;2022-07-29T09:19:35;18.30;99.90
52621;DHT22;38515;53.160;6.990;2022-07-29T09:22:05;18.30;99.90
52621;DHT22;38515;53.160;6.990;2022-07-29T09:24:43;18.30;99.90
52621;DHT22;38515;53.160;6.990;2022-07-29T09:27:20;18.20;99.90
52621;DHT22;38515;53.160;6.990;2022-07-29T09:29:56;18.20;99.90
52621;DHT22;38515;53.160;6.990;2022-07-29T09:32:23;18.20;99.90
52621;DHT22;38515;53.160;6.990;2022-07-29T09:34:49;18.10;99.90
52621;DHT22;38515;53.160;6.990;2022-07-29T09:37:28;18.10;99.90
52621;DHT22;38515;53.160;6.990;2022-07-29T09:39:54;18.20;99.90
52621;DHT22;38515;53.160;6.990;2022-07-29T09:42:28;18.20;99.90
52621;DHT22;38515;53.160;6.990;2022-07-29T09:44:55;18.30;99.90
52621;DHT22;38515;53.160;6.990;2022-07-29T09:47:21;18.30;99.90
52621;DHT22;38515;53.160;6.990;2022-07-29T09:49:56;18.40;99.90
52621;DHT22;38515;53.160;6.990;2022-07-29T09:52:24;18.50;99.90
52621;DHT22;38515;53.160;6.990;2022-07-29T09:54:50;18.50;99.90
52621;DHT22;38515;53.160;6.990;2022-07-29T09:57:26;18.70;99.90
52621;DHT22;38515;53.160;6.990;2022-07-29T10:00:03;18.80;99.90
52621;DHT22;38515;53.160;6.990;2022-07-29T10:02:32;19.00;99.90
52621;DHT22;38515;53.160;6.990;2022-07-29T10:04:59;19.00;99.90
52621;DHT22;38515;53.160;6.990;2022-07-29T10:07:25;19.10;99.90
52621;DHT22;38515;53.160;6.990;2022-07-29T10:09:54;19.20;99.90
52621;DHT22;38515;53.160;6.990;2022-07-29T10:12:21;19.30;99.90
52621;DHT22;38515;53.160;6.990;2022-07-29T10:14:47;19.30;99.90
52621;DHT22;38515;53.160;6.990;2022-07-29T10:17:15;19.40;99.90
52621;DHT22;38515;53.160;6.990;2022-07-29T10:19:41;19.50;99.90
52621;DHT22;38515;53.160;6.990;2022-07-29T10:22:09;19.60;99.90
52621;DHT22;38515;53.160;6.990;2022-07-29T10:24:36;19.70;99.90
52621;DHT22;38515;53.160;6.990;2022-07-29T10:27:05;19.80;99.90
52621;DHT22;38515;53.160;6.990;2022-07-29T10:29:31;19.90;99.90
52621;DHT22;38515;53.160;6.990;2022-07-29T10:32:12;20.00;99.90
52621;DHT22;38515;53.160;6.990;2022-07-29T10:35:06;20.00;99.90
52621;DHT22;38515;53.160;6.990;2022-07-29T10:37:44;20.10;99.90
52621;DHT22;38515;53.160;6.990;2022-07-29T10:40:29;20.00;99.90
52621;DHT22;38515;53.160;6.990;2022-07-29T10:43:33;20.10;99.90
52621;DHT22;38515;53.160;6.990;2022-07-29T10:46:02;20.20;99.90
52621;DHT22;38515;53.160;6.990;2022-07-29T10:48:29;20.30;99.90
52621;DHT22;38515;53.160;6.990;2022-07-29T10:50:58;20.40;99.90
52621;DHT22;38515;53.160;6.990;2022-07-29T10:53:45;20.50;99.90
52621;DHT22;38515;53.160;6.990;2022-07-29T10:56:24;20.60;99.90
52621;DHT22;38515;53.160;6.990;2022-07-29T11:01:42;20.90;99.90
52621;DHT22;38515;53.160;6.990;2022-07-29T11:04:08;20.80;99.90
52621;DHT22;38515;53.160;6.990;2022-07-29T11:09:29;21.10;99.90
52621;DHT22;38515;53.160;6.990;2022-07-29T11:11:57;21.10;99.90
52621;DHT22;38515;53.160;6.990;2022-07-29T11:17:17;21.10;99.90
52621;DHT22;38515;53.160;6.990;2022-07-29T11:19:43;21.10;99.90
52621;DHT22;38515;53.160;6.990;2022-07-29T11:22:11;21.20;99.90
52621;DHT22;38515;53.160;6.990;2022-07-29T11:24:38;21.20;99.90
52621;DHT22;38515;53.160;6.990;2022-07-29T11:27:08;21.30;99.90
52621;DHT22;38515;53.160;6.990;2022-07-29T11:29:40;21.20;99.90
52621;DHT22;38515;53.160;6.990;2022-07-29T11:32:12;21.20;99.90
52621;DHT22;38515;53.160;6.990;2022-07-29T11:34:40;21.20;99.90
52621;DHT22;38515;53.160;6.990;2022-07-29T11:39:34;21.20;99.90
52621;DHT22;38515;53.160;6.990;2022-07-29T11:44:56;21.20;99.90
52621;DHT22;38515;53.160;6.990;2022-07-29T11:47:23;21.20;99.90
52621;DHT22;38515;53.160;6.990;2022-07-29T11:49:51;21.20;99.90
52621;DHT22;38515;53.160;6.990;2022-07-29T11:52:18;21.30;99.90
52621;DHT22;38515;53.160;6.990;2022-07-29T11:54:47;21.30;99.90
52621;DHT22;38515;53.160;6.990;2022-07-29T11:57:16;21.40;99.90
52621;DHT22;38515;53.160;6.990;2022-07-29T11:59:44;21.40;99.90
52621;DHT22;38515;53.160;6.990;2022-07-29T12:02:11;21.50;99.90
52621;DHT22;38515;53.160;6.990;2022-07-29T12:04:51;21.60;99.90
52621;DHT22;38515;53.160;6.990;2022-07-29T12:07:19;21.60;99.50
52621;DHT22;38515;53.160;6.990;2022-07-29T12:09:52;21.60;99.70
52621;DHT22;38515;53.160;6.990;2022-07-29T12:12:22;21.60;99.90
52621;DHT22;38515;53.160;6.990;2022-07-29T12:14:49;21.70;99.90
52621;DHT22;38515;53.160;6.990;2022-07-29T12:17:32;21.70;99.90
52621;DHT22;38515;53.160;6.990;2022-07-29T12:20:01;21.80;99.70
52621;DHT22;38515;53.160;6.990;2022-07-29T12:22:30;21.80;99.90
52621;DHT22;38515;53.160;6.990;2022-07-29T12:25:02;21.90;99.60
52621;DHT22;38515;53.160;6.990;2022-07-29T12:27:28;21.90;99.20
52621;DHT22;38515;53.160;6.990;2022-07-29T12:32:22;22.10;99.70
52621;DHT22;38515;53.160;6.990;2022-07-29T12:34:49;22.20;99.90
52621;DHT22;38515;53.160;6.990;2022-07-29T12:37:16;22.30;99.50
52621;DHT22;38515;53.160;6.990;2022-07-29T12:39:42;22.30;99.30
52621;DHT22;38515;53.160;6.990;2022-07-29T12:42:12;22.40;99.50
52621;DHT22;38515;53.160;6.990;2022-07-29T12:44:44;22.50;98.80
52621;DHT22;38515;53.160;6.990;2022-07-29T12:47:10;22.50;99.30
52621;DHT22;38515;53.160;6.990;2022-07-29T12:49:37;22.50;99.90
52621;DHT22;38515;53.160;6.990;2022-07-29T12:52:30;22.50;99.90
52621;DHT22;38515;53.160;6.990;2022-07-29T12:54:56;22.50;99.90
52621;DHT22;38515;53.160;6.990;2022-07-29T12:57:22;22.60;99.90
52621;DHT22;38515;53.160;6.990;2022-07-29T13:00:04;22.40;99.90
52621;DHT22;38515;53.160;6.990;2022-07-29T13:02:31;22.30;99.90
52621;DHT22;38515;53.160;6.990;2022-07-29T13:04:58;22.20;99.60
52621;DHT22;38515;53.160;6.990;2022-07-29T13:07:27;22.20;99.90
52621;DHT22;38515;53.160;6.990;2022-07-29T13:09:54;22.10;99.90
52621;DHT22;38515;53.160;6.990;2022-07-29T13:12:34;22.10;99.90
52621;DHT22;38515;53.160;6.990;2022-07-29T13:15:00;22.00;99.90
52621;DHT22;38515;53.160;6.990;2022-07-29T13:17:26;22.00;99.90
52621;DHT22;38515;53.160;6.990;2022-07-29T13:20:06;21.90;99.90
52621;DHT22;38515;53.160;6.990;2022-07-29T13:22:34;21.90;99.90
52621;DHT22;38515;53.160;6.990;2022-07-29T13:25:02;21.80;99.90
52621;DHT22;38515;53.160;6.990;2022-07-29T13:27:30;21.80;99.90
52621;DHT22;38515;53.160;6.990;2022-07-29T13:29:59;21.80;99.90
52621;DHT22;38515;53.160;6.990;2022-07-29T13:32:26;21.70;99.90
52621;DHT22;38515;53.160;6.990;2022-07-29T13:34:53;21.70;99.90
52621;DHT22;38515;53.160;6.990;2022-07-29T13:37:19;21.70;99.90
52621;DHT22;38515;53.160;6.990;2022-07-29T13:39:45;21.60;99.90
52621;DHT22;38515;53.160;6.990;2022-07-29T13:42:11;21.60;99.90
52621;DHT22;38515;53.160;6.990;2022-07-29T13:44:39;21.60;99.90
52621;DHT22;38515;53.160;6.990;2022-07-29T13:47:06;21.60;99.90
52621;DHT22;38515;53.160;6.990;2022-07-29T13:49:32;21.60;99.90
52621;DHT22;38515;53.160;6.990;2022-07-29T13:51:58;21.70;99.90
52621;DHT22;38515;53.160;6.990;2022-07-29T13:54:24;21.70;99.90
52621;DHT22;38515;53.160;6.990;2022-07-29T13:56:50;21.70;99.90
52621;DHT22;38515;53.160;6.990;2022-07-29T13:59:16;21.70;99.90
52621;DHT22;38515;53.160;6.990;2022-07-29T14:01:42;21.70;99.90
52621;DHT22;38515;53.160;6.990;2022-07-29T14:04:09;21.70;99.90
52621;DHT22;38515;53.160;6.990;2022-07-29T14:06:36;21.70;99.90
52621;DHT22;38515;53.160;6.990;2022-07-29T14:09:03;21.70;99.90
52621;DHT22;38515;53.160;6.990;2022-07-29T14:11:32;21.70;99.90
52621;DHT22;38515;53.160;6.990;2022-07-29T14:13:58;21.70;99.90
52621;DHT22;38515;53.160;6.990;2022-07-29T14:16:24;21.70;99.90
52621;DHT22;38515;53.160;6.990;2022-07-29T14:18:50;21.70;99.90
52621;DHT22;38515;53.160;6.990;2022-07-29T14:21:17;21.70;99.90
52621;DHT22;38515;53.160;6.990;2022-07-29T14:23:44;21.80;99.90
52621;DHT22;38515;53.160;6.990;2022-07-29T14:26:09;21.80;99.90
52621;DHT22;38515;53.160;6.990;2022-07-29T14:28:35;21.90;99.90
52621;DHT22;38515;53.160;6.990;2022-07-29T14:31:01;21.90;99.70
52621;DHT22;38515;53.160;6.990;2022-07-29T14:33:27;22.00;99.80
52621;DHT22;38515;53.160;6.990;2022-07-29T14:35:53;22.10;99.50
52621;DHT22;38515;53.160;6.990;2022-07-29T14:38:19;22.10;99.90
52621;DHT22;38515;53.160;6.990;2022-07-29T14:40:44;22.20;99.50
52621;DHT22;38515;53.160;6.990;2022-07-29T14:43:12;22.20;99.10
52621;DHT22;38515;53.160;6.990;2022-07-29T14:45:40;22.30;99.00
52621;DHT22;38515;53.160;6.990;2022-07-29T14:48:06;22.30;98.60
52621;DHT22;38515;53.160;6.990;2022-07-29T14:50:33;22.30;98.70
52621;DHT22;38515;53.160;6.990;2022-07-29T14:53:00;22.40;99.30
52621;DHT22;38515;53.160;6.990;2022-07-29T14:55:26;22.50;98.70
52621;DHT22;38515;53.160;6.990;2022-07-29T14:57:52;22.60;98.00
52621;DHT22;38515;53.160;6.990;2022-07-29T15:00:19;22.60;97.80
52621;DHT22;38515;53.160;6.990;2022-07-29T15:02:46;22.70;97.90
52621;DHT22;38515;53.160;6.990;2022-07-29T15:05:12;22.70;97.50
52621;DHT22;38515;53.160;6.990;2022-07-29T15:07:38;22.70;97.30
52621;DHT22;38515;53.160;6.990;2022-07-29T15:10:04;22.70;96.90
52621;DHT22;38515;53.160;6.990;2022-07-29T15:12:31;22.80;97.10
52621;DHT22;38515;53.160;6.990;2022-07-29T15:14:57;22.90;96.90
52621;DHT22;38515;53.160;6.990;2022-07-29T15:17:23;22.90;96.70
52621;DHT22;38515;53.160;6.990;2022-07-29T15:19:49;22.90;96.70
52621;DHT22;38515;53.160;6.990;2022-07-29T15:22:15;22.90;96.80
52621;DHT22;38515;53.160;6.990;2022-07-29T15:24:41;22.90;97.10
52621;DHT22;38515;53.160;6.990;2022-07-29T15:27:07;22.90;97.10
52621;DHT22;38515;53.160;6.990;2022-07-29T15:29:40;22.80;96.80
52621;DHT22;38515;53.160;6.990;2022-07-29T15:32:07;22.80;96.60
52621;DHT22;38515;53.160;6.990;2022-07-29T15:34:34;22.80;96.90
52621;DHT22;38515;53.160;6.990;2022-07-29T15:37:00;22.70;96.70
52621;DHT22;38515;53.160;6.990;2022-07-29T15:39:26;22.70;96.90
52621;DHT22;38515;53.160;6.990;2022-07-29T15:41:52;22.60;96.80
52621;DHT22;38515;53.160;6.990;2022-07-29T15:44:18;22.60;97.20
52621;DHT22;38515;53.160;6.990;2022-07-29T15:46:44;22.70;97.10
52621;DHT22;38515;53.160;6.990;2022-07-29T15:49:29;22.60;97.30
52621;DHT22;38515;53.160;6.990;2022-07-29T15:51:58;22.60;97.20
52621;DHT22;38515;53.160;6.990;2022-07-29T15:54:24;22.70;97.50
52621;DHT22;38515;53.160;6.990;2022-07-29T15:56:50;22.70;98.50
52621;DHT22;38515;53.160;6.990;2022-07-29T15:59:16;22.80;98.30
52621;DHT22;38515;53.160;6.990;2022-07-29T16:01:42;22.90;98.10